sensor_id;sensor_type;location;lat;lon;timestamp;P1;durP1;ratioP1;P2;durP2;ratioP2
47922;SDS011;33688;44.354;9.228;2022-09-17T00:00:48;1.00;;;0.93;;
47922;SDS011;33688;44.354;9.228;2022-09-17T00:03:15;1.23;;;0.93;;
47922;SDS011;33688;44.354;9.228;2022-09-17T00:05:41;1.52;;;1.13;;
47922;SDS011;33688;44.354;9.228;2022-09-17T00:08:09;1.98;;;1.30;;
47922;SDS011;33688;44.354;9.228;2022-09-17T00:10:39;2.28;;;1.40;;
47922;SDS011;33688;44.354;9.228;2022-09-17T00:13:08;1.92;;;1.13;;
47922;SDS011;33688;44.354;9.228;2022-09-17T00:15:42;2.42;;;1.08;;
47922;SDS011;33688;44.354;9.228;2022-09-17T00:18:10;1.35;;;0.95;;
47922;SDS011;33688;44.354;9.228;2022-09-17T00:20:38;1.48;;;1.13;;
47922;SDS011;33688;44.354;9.228;2022-09-17T00:23:10;1.48;;;0.90;;
47922;SDS011;33688;44.354;9.228;2022-09-17T00:25:38;2.15;;;0.93;;
47922;SDS011;33688;44.354;9.228;2022-09-17T00:28:09;1.23;;;1.02;;
47922;SDS011;33688;44.354;9.228;2022-09-17T00:30:44;3.28;;;1.45;;
47922;SDS011;33688;44.354;9.228;2022-09-17T00:33:14;2.40;;;1.35;;
47922;SDS011;33688;44.354;9.228;2022-09-17T00:35:42;1.57;;;0.93;;
47922;SDS011;33688;44.354;9.228;2022-09-17T00:38:09;1.02;;;0.93;;
47922;SDS011;33688;44.354;9.228;2022-09-17T00:40:36;1.27;;;1.00;;
47922;SDS011;33688;44.354;9.228;2022-09-17T00:43:02;1.38;;;0.77;;
47922;SDS011;33688;44.354;9.228;2022-09-17T00:45:34;1.08;;;0.82;;
47922;SDS011;33688;44.354;9.228;2022-09-17T00:48:01;1.80;;;1.10;;
47922;SDS011;33688;44.354;9.228;2022-09-17T00:50:31;2.85;;;1.20;;
47922;SDS011;33688;44.354;9.228;2022-09-17T00:53:09;1.48;;;1.20;;
47922;SDS011;33688;44.354;9.228;2022-09-17T00:55:41;0.80;;;0.80;;
47922;SDS011;33688;44.354;9.228;2022-09-17T00:58:44;2.33;;;1.10;;
47922;SDS011;33688;44.354;9.228;2022-09-17T01:01:10;1.83;;;0.90;;
47922;SDS011;33688;44.354;9.228;2022-09-17T01:03:36;1.52;;;0.95;;
47922;SDS011;33688;44.354;9.228;2022-09-17T01:06:11;1.08;;;0.82;;
47922;SDS011;33688;44.354;9.228;2022-09-17T01:09:07;1.00;;;0.90;;
47922;SDS011;33688;44.354;9.228;2022-09-17T01:34:50;0.70;;;0.70;;
47922;SDS011;33688;44.354;9.228;2022-09-17T01:37:39;1.00;;;0.90;;
47922;SDS011;33688;44.354;9.228;2022-09-17T01:40:16;1.48;;;1.20;;
47922;SDS011;33688;44.354;9.228;2022-09-17T01:45:48;0.90;;;0.80;;
47922;SDS011;33688;44.354;9.228;2022-09-17T01:53:42;1.20;;;0.90;;
47922;SDS011;33688;44.354;9.228;2022-09-17T01:56:18;0.90;;;0.70;;
47922;SDS011;33688;44.354;9.228;2022-09-17T01:59:35;0.77;;;0.70;;
47922;SDS011;33688;44.354;9.228;2022-09-17T02:01:47;2.03;;;1.05;;
47922;SDS011;33688;44.354;9.228;2022-09-17T02:04:22;0.82;;;0.77;;
47922;SDS011;33688;44.354;9.228;2022-09-17T02:07:12;0.80;;;0.73;;
47922;SDS011;33688;44.354;9.228;2022-09-17T02:09:45;1.65;;;1.13;;
47922;SDS011;33688;44.354;9.228;2022-09-17T02:12:31;1.33;;;0.75;;
47922;SDS011;33688;44.354;9.228;2022-09-17T02:15:04;0.80;;;0.80;;
47922;SDS011;33688;44.354;9.228;2022-09-17T02:20:13;2.30;;;1.10;;
47922;SDS011;33688;44.354;9.228;2022-09-17T02:22:46;1.85;;;1.10;;
47922;SDS011;33688;44.354;9.228;2022-09-17T02:25:29;1.33;;;0.90;;
47922;SDS011;33688;44.354;9.228;2022-09-17T02:28:10;3.60;;;0.98;;
47922;SDS011;33688;44.354;9.228;2022-09-17T02:30:51;1.08;;;0.93;;
47922;SDS011;33688;44.354;9.228;2022-09-17T02:33:16;1.45;;;0.95;;
47922;SDS011;33688;44.354;9.228;2022-09-17T02:35:44;1.60;;;1.05;;
47922;SDS011;33688;44.354;9.228;2022-09-17T02:38:11;0.82;;;0.70;;
47922;SDS011;33688;44.354;9.228;2022-09-17T02:40:44;1.33;;;0.70;;
47922;SDS011;33688;44.354;9.228;2022-09-17T02:43:22;1.60;;;1.00;;
47922;SDS011;33688;44.354;9.228;2022-09-17T02:49:52;1.02;;;0.90;;
47922;SDS011;33688;44.354;9.228;2022-09-17T02:55:18;1.10;;;1.00;;
47922;SDS011;33688;44.354;9.228;2022-09-17T02:58:39;1.10;;;1.00;;
47922;SDS011;33688;44.354;9.228;2022-09-17T03:01:13;1.20;;;0.90;;
47922;SDS011;33688;44.354;9.228;2022-09-17T03:03:53;2.08;;;1.33;;
47922;SDS011;33688;44.354;9.228;2022-09-17T03:06:22;1.52;;;0.98;;
47922;SDS011;33688;44.354;9.228;2022-09-17T03:08:48;1.52;;;1.02;;
47922;SDS011;33688;44.354;9.228;2022-09-17T03:11:15;1.05;;;0.70;;
47922;SDS011;33688;44.354;9.228;2022-09-17T03:13:41;0.95;;;0.90;;
47922;SDS011;33688;44.354;9.228;2022-09-17T03:16:07;1.38;;;1.10;;
47922;SDS011;33688;44.354;9.228;2022-09-17T03:18:33;1.05;;;0.90;;
47922;SDS011;33688;44.354;9.228;2022-09-17T03:20:59;1.20;;;0.88;;
47922;SDS011;33688;44.354;9.228;2022-09-17T03:23:25;1.73;;;1.20;;
47922;SDS011;33688;44.354;9.228;2022-09-17T03:25:52;1.10;;;1.00;;
47922;SDS011;33688;44.354;9.228;2022-09-17T03:28:19;1.67;;;0.80;;
47922;SDS011;33688;44.354;9.228;2022-09-17T03:30:45;0.95;;;0.75;;
47922;SDS011;33688;44.354;9.228;2022-09-17T03:33:11;0.60;;;0.60;;
47922;SDS011;33688;44.354;9.228;2022-09-17T03:35:41;0.82;;;0.82;;
47922;SDS011;33688;44.354;9.228;2022-09-17T03:38:09;1.27;;;0.80;;
47922;SDS011;33688;44.354;9.228;2022-09-17T03:40:36;0.98;;;0.88;;
47922;SDS011;33688;44.354;9.228;2022-09-17T03:43:02;1.25;;;0.88;;
47922;SDS011;33688;44.354;9.228;2022-09-17T03:45:28;1.20;;;1.05;;
47922;SDS011;33688;44.354;9.228;2022-09-17T03:47:54;1.23;;;1.00;;
47922;SDS011;33688;44.354;9.228;2022-09-17T03:50:21;1.30;;;0.95;;
47922;SDS011;33688;44.354;9.228;2022-09-17T03:52:47;0.80;;;0.80;;
47922;SDS011;33688;44.354;9.228;2022-09-17T03:55:13;1.00;;;0.70;;
47922;SDS011;33688;44.354;9.228;2022-09-17T03:57:40;1.50;;;0.80;;
47922;SDS011;33688;44.354;9.228;2022-09-17T04:00:05;0.68;;;0.68;;
47922;SDS011;33688;44.354;9.228;2022-09-17T04:02:37;0.90;;;0.90;;
47922;SDS011;33688;44.354;9.228;2022-09-17T04:05:03;0.82;;;0.80;;
47922;SDS011;33688;44.354;9.228;2022-09-17T04:07:29;0.80;;;0.80;;
47922;SDS011;33688;44.354;9.228;2022-09-17T04:09:55;0.93;;;0.90;;
47922;SDS011;33688;44.354;9.228;2022-09-17T04:12:21;0.98;;;0.90;;
47922;SDS011;33688;44.354;9.228;2022-09-17T04:14:46;1.30;;;1.02;;
47922;SDS011;33688;44.354;9.228;2022-09-17T04:17:13;0.85;;;0.77;;
47922;SDS011;33688;44.354;9.228;2022-09-17T04:19:42;2.05;;;0.98;;
47922;SDS011;33688;44.354;9.228;2022-09-17T04:22:10;1.90;;;1.00;;
47922;SDS011;33688;44.354;9.228;2022-09-17T04:24:36;0.70;;;0.70;;
47922;SDS011;33688;44.354;9.228;2022-09-17T04:27:02;0.93;;;0.82;;
47922;SDS011;33688;44.354;9.228;2022-09-17T04:29:28;1.15;;;0.80;;
47922;SDS011;33688;44.354;9.228;2022-09-17T04:31:53;0.98;;;0.88;;
47922;SDS011;33688;44.354;9.228;2022-09-17T04:34:19;0.95;;;0.70;;
47922;SDS011;33688;44.354;9.228;2022-09-17T04:36:45;0.60;;;0.60;;
47922;SDS011;33688;44.354;9.228;2022-09-17T04:39:11;0.77;;;0.77;;
47922;SDS011;33688;44.354;9.228;2022-09-17T04:41:37;1.00;;;0.73;;
47922;SDS011;33688;44.354;9.228;2022-09-17T04:44:02;1.08;;;0.90;;
47922;SDS011;33688;44.354;9.228;2022-09-17T04:46:28;0.93;;;0.80;;
47922;SDS011;33688;44.354;9.228;2022-09-17T04:48:54;1.02;;;0.70;;
47922;SDS011;33688;44.354;9.228;2022-09-17T04:51:20;0.77;;;0.73;;
47922;SDS011;33688;44.354;9.228;2022-09-17T04:53:46;1.40;;;0.73;;
47922;SDS011;33688;44.354;9.228;2022-09-17T04:56:12;1.15;;;0.70;;
47922;SDS011;33688;44.354;9.228;2022-09-17T04:58:38;1.05;;;0.80;;
47922;SDS011;33688;44.354;9.228;2022-09-17T05:01:04;0.80;;;0.60;;
47922;SDS011;33688;44.354;9.228;2022-09-17T05:03:30;1.30;;;0.80;;
47922;SDS011;33688;44.354;9.228;2022-09-17T05:05:56;1.33;;;1.00;;
47922;SDS011;33688;44.354;9.228;2022-09-17T05:08:22;0.95;;;0.70;;
47922;SDS011;33688;44.354;9.228;2022-09-17T05:10:50;0.80;;;0.80;;
47922;SDS011;33688;44.354;9.228;2022-09-17T05:13:16;1.02;;;0.90;;
47922;SDS011;33688;44.354;9.228;2022-09-17T05:15:43;0.80;;;0.80;;
47922;SDS011;33688;44.354;9.228;2022-09-17T05:18:09;0.98;;;0.93;;
47922;SDS011;33688;44.354;9.228;2022-09-17T05:20:35;1.00;;;0.90;;
47922;SDS011;33688;44.354;9.228;2022-09-17T05:23:01;0.90;;;0.68;;
47922;SDS011;33688;44.354;9.228;2022-09-17T05:25:26;1.25;;;0.90;;
47922;SDS011;33688;44.354;9.228;2022-09-17T05:27:52;0.60;;;0.60;;
47922;SDS011;33688;44.354;9.228;2022-09-17T05:30:19;0.90;;;0.85;;
47922;SDS011;33688;44.354;9.228;2022-09-17T05:32:45;1.17;;;0.85;;
47922;SDS011;33688;44.354;9.228;2022-09-17T05:35:11;0.80;;;0.70;;
47922;SDS011;33688;44.354;9.228;2022-09-17T05:37:37;1.00;;;0.90;;
47922;SDS011;33688;44.354;9.228;2022-09-17T05:40:04;0.88;;;0.85;;
47922;SDS011;33688;44.354;9.228;2022-09-17T05:42:32;0.90;;;0.77;;
47922;SDS011;33688;44.354;9.228;2022-09-17T05:44:58;0.70;;;0.63;;
47922;SDS011;33688;44.354;9.228;2022-09-17T05:47:24;0.75;;;0.70;;
47922;SDS011;33688;44.354;9.228;2022-09-17T05:49:50;1.00;;;0.70;;
47922;SDS011;33688;44.354;9.228;2022-09-17T05:52:16;1.02;;;0.70;;
47922;SDS011;33688;44.354;9.228;2022-09-17T05:54:42;1.20;;;0.98;;
47922;SDS011;33688;44.354;9.228;2022-09-17T05:57:07;0.75;;;0.70;;
47922;SDS011;33688;44.354;9.228;2022-09-17T05:59:33;1.05;;;0.52;;
47922;SDS011;33688;44.354;9.228;2022-09-17T06:02:00;0.70;;;0.70;;
47922;SDS011;33688;44.354;9.228;2022-09-17T06:04:26;0.60;;;0.60;;
47922;SDS011;33688;44.354;9.228;2022-09-17T06:06:52;1.08;;;0.82;;
47922;SDS011;33688;44.354;9.228;2022-09-17T06:09:18;0.70;;;0.70;;
47922;SDS011;33688;44.354;9.228;2022-09-17T06:11:44;0.70;;;0.70;;
47922;SDS011;33688;44.354;9.228;2022-09-17T06:14:10;0.70;;;0.70;;
47922;SDS011;33688;44.354;9.228;2022-09-17T06:16:36;1.30;;;0.85;;
47922;SDS011;33688;44.354;9.228;2022-09-17T06:19:02;0.60;;;0.60;;
47922;SDS011;33688;44.354;9.228;2022-09-17T06:21:28;0.80;;;0.60;;
47922;SDS011;33688;44.354;9.228;2022-09-17T06:23:54;0.75;;;0.60;;
47922;SDS011;33688;44.354;9.228;2022-09-17T06:26:20;0.98;;;0.88;;
47922;SDS011;33688;44.354;9.228;2022-09-17T06:28:47;0.40;;;0.40;;
47922;SDS011;33688;44.354;9.228;2022-09-17T06:31:12;0.85;;;0.70;;
47922;SDS011;33688;44.354;9.228;2022-09-17T06:33:38;0.77;;;0.77;;
47922;SDS011;33688;44.354;9.228;2022-09-17T06:36:05;1.00;;;0.63;;
47922;SDS011;33688;44.354;9.228;2022-09-17T06:38:35;0.80;;;0.57;;
47922;SDS011;33688;44.354;9.228;2022-09-17T06:41:01;1.08;;;0.70;;
47922;SDS011;33688;44.354;9.228;2022-09-17T06:43:28;1.02;;;0.80;;
47922;SDS011;33688;44.354;9.228;2022-09-17T06:46:00;0.73;;;0.70;;
47922;SDS011;33688;44.354;9.228;2022-09-17T06:48:31;0.57;;;0.57;;
47922;SDS011;33688;44.354;9.228;2022-09-17T06:51:06;0.70;;;0.70;;
47922;SDS011;33688;44.354;9.228;2022-09-17T06:53:35;0.63;;;0.63;;
47922;SDS011;33688;44.354;9.228;2022-09-17T06:56:02;0.80;;;0.73;;
47922;SDS011;33688;44.354;9.228;2022-09-17T06:58:30;1.27;;;0.60;;
47922;SDS011;33688;44.354;9.228;2022-09-17T07:00:59;0.88;;;0.73;;
47922;SDS011;33688;44.354;9.228;2022-09-17T07:03:26;0.50;;;0.50;;
47922;SDS011;33688;44.354;9.228;2022-09-17T07:05:53;1.05;;;0.60;;
47922;SDS011;33688;44.354;9.228;2022-09-17T07:08:19;0.70;;;0.70;;
47922;SDS011;33688;44.354;9.228;2022-09-17T07:10:47;0.88;;;0.75;;
47922;SDS011;33688;44.354;9.228;2022-09-17T07:13:13;0.57;;;0.57;;
47922;SDS011;33688;44.354;9.228;2022-09-17T07:15:39;1.23;;;0.70;;
47922;SDS011;33688;44.354;9.228;2022-09-17T07:18:08;0.80;;;0.80;;
47922;SDS011;33688;44.354;9.228;2022-09-17T07:20:36;0.95;;;0.70;;
47922;SDS011;33688;44.354;9.228;2022-09-17T07:23:04;0.60;;;0.60;;
47922;SDS011;33688;44.354;9.228;2022-09-17T07:25:30;0.70;;;0.70;;
47922;SDS011;33688;44.354;9.228;2022-09-17T07:27:56;0.80;;;0.80;;
47922;SDS011;33688;44.354;9.228;2022-09-17T07:30:21;0.60;;;0.60;;
47922;SDS011;33688;44.354;9.228;2022-09-17T07:32:47;0.60;;;0.60;;
47922;SDS011;33688;44.354;9.228;2022-09-17T07:35:13;0.60;;;0.60;;
47922;SDS011;33688;44.354;9.228;2022-09-17T07:37:39;0.80;;;0.80;;
47922;SDS011;33688;44.354;9.228;2022-09-17T07:40:05;1.05;;;0.80;;
47922;SDS011;33688;44.354;9.228;2022-09-17T07:42:32;0.73;;;0.63;;
47922;SDS011;33688;44.354;9.228;2022-09-17T07:44:58;0.70;;;0.60;;
47922;SDS011;33688;44.354;9.228;2022-09-17T07:47:25;0.88;;;0.88;;
47922;SDS011;33688;44.354;9.228;2022-09-17T07:49:51;0.52;;;0.50;;
47922;SDS011;33688;44.354;9.228;2022-09-17T07:52:16;0.52;;;0.52;;
47922;SDS011;33688;44.354;9.228;2022-09-17T07:54:42;0.63;;;0.57;;
47922;SDS011;33688;44.354;9.228;2022-09-17T07:57:08;0.50;;;0.40;;
47922;SDS011;33688;44.354;9.228;2022-09-17T07:59:34;0.45;;;0.40;;
47922;SDS011;33688;44.354;9.228;2022-09-17T08:01:59;0.50;;;0.50;;
47922;SDS011;33688;44.354;9.228;2022-09-17T08:04:25;1.00;;;0.90;;
47922;SDS011;33688;44.354;9.228;2022-09-17T08:06:51;0.85;;;0.70;;
47922;SDS011;33688;44.354;9.228;2022-09-17T08:09:17;0.52;;;0.52;;
47922;SDS011;33688;44.354;9.228;2022-09-17T08:11:43;1.05;;;0.63;;
47922;SDS011;33688;44.354;9.228;2022-09-17T08:14:10;0.63;;;0.63;;
47922;SDS011;33688;44.354;9.228;2022-09-17T08:16:39;0.55;;;0.55;;
47922;SDS011;33688;44.354;9.228;2022-09-17T08:19:05;0.60;;;0.55;;
47922;SDS011;33688;44.354;9.228;2022-09-17T08:21:35;0.63;;;0.63;;
47922;SDS011;33688;44.354;9.228;2022-09-17T08:24:01;0.55;;;0.38;;
47922;SDS011;33688;44.354;9.228;2022-09-17T08:26:27;1.38;;;0.80;;
47922;SDS011;33688;44.354;9.228;2022-09-17T08:28:53;0.70;;;0.70;;
47922;SDS011;33688;44.354;9.228;2022-09-17T08:31:21;0.75;;;0.52;;
47922;SDS011;33688;44.354;9.228;2022-09-17T08:33:49;0.50;;;0.45;;
47922;SDS011;33688;44.354;9.228;2022-09-17T08:36:16;0.70;;;0.70;;
47922;SDS011;33688;44.354;9.228;2022-09-17T08:38:45;1.30;;;0.80;;
47922;SDS011;33688;44.354;9.228;2022-09-17T08:46:48;1.27;;;0.68;;
47922;SDS011;33688;44.354;9.228;2022-09-17T09:08:30;0.57;;;0.57;;
47922;SDS011;33688;44.354;9.228;2022-09-17T09:11:21;0.52;;;0.50;;
47922;SDS011;33688;44.354;9.228;2022-09-17T09:14:26;0.68;;;0.68;;
47922;SDS011;33688;44.354;9.228;2022-09-17T09:16:48;0.50;;;0.50;;
47922;SDS011;33688;44.354;9.228;2022-09-17T09:19:20;0.70;;;0.50;;
47922;SDS011;33688;44.354;9.228;2022-09-17T09:25:22;0.68;;;0.65;;
47922;SDS011;33688;44.354;9.228;2022-09-17T09:33:46;0.70;;;0.70;;
47922;SDS011;33688;44.354;9.228;2022-09-17T09:36:14;0.50;;;0.50;;
47922;SDS011;33688;44.354;9.228;2022-09-17T09:44:18;2.22;;;0.47;;
47922;SDS011;33688;44.354;9.228;2022-09-17T09:52:43;0.60;;;0.60;;
47922;SDS011;33688;44.354;9.228;2022-09-17T09:58:38;0.68;;;0.68;;
47922;SDS011;33688;44.354;9.228;2022-09-17T10:01:15;0.50;;;0.50;;
47922;SDS011;33688;44.354;9.228;2022-09-17T10:03:47;0.77;;;0.50;;
47922;SDS011;33688;44.354;9.228;2022-09-17T10:06:18;0.45;;;0.40;;
47922;SDS011;33688;44.354;9.228;2022-09-17T10:11:21;0.65;;;0.50;;
47922;SDS011;33688;44.354;9.228;2022-09-17T10:13:53;0.30;;;0.30;;
47922;SDS011;33688;44.354;9.228;2022-09-17T10:17:09;0.70;;;0.70;;
47922;SDS011;33688;44.354;9.228;2022-09-17T10:22:43;0.30;;;0.30;;
47922;SDS011;33688;44.354;9.228;2022-09-17T10:27:58;0.90;;;0.80;;
47922;SDS011;33688;44.354;9.228;2022-09-17T10:30:36;0.60;;;0.47;;
47922;SDS011;33688;44.354;9.228;2022-09-17T10:33:21;0.63;;;0.63;;
47922;SDS011;33688;44.354;9.228;2022-09-17T10:35:54;0.73;;;0.60;;
47922;SDS011;33688;44.354;9.228;2022-09-17T10:38:37;0.50;;;0.50;;
47922;SDS011;33688;44.354;9.228;2022-09-17T10:43:46;0.52;;;0.50;;
47922;SDS011;33688;44.354;9.228;2022-09-17T10:46:14;0.47;;;0.47;;
47922;SDS011;33688;44.354;9.228;2022-09-17T10:49:25;0.40;;;0.40;;
47922;SDS011;33688;44.354;9.228;2022-09-17T10:52:11;0.47;;;0.47;;
47922;SDS011;33688;44.354;9.228;2022-09-17T10:55:04;0.75;;;0.60;;
47922;SDS011;33688;44.354;9.228;2022-09-17T11:00:29;0.63;;;0.63;;
47922;SDS011;33688;44.354;9.228;2022-09-17T11:21:05;0.30;;;0.30;;
47922;SDS011;33688;44.354;9.228;2022-09-17T11:24:16;0.40;;;0.40;;
47922;SDS011;33688;44.354;9.228;2022-09-17T11:30:04;0.50;;;0.50;;
47922;SDS011;33688;44.354;9.228;2022-09-17T11:35:48;0.55;;;0.55;;
47922;SDS011;33688;44.354;9.228;2022-09-17T11:38:41;0.50;;;0.50;;
47922;SDS011;33688;44.354;9.228;2022-09-17T11:41:20;0.47;;;0.40;;
47922;SDS011;33688;44.354;9.228;2022-09-17T11:50:01;0.38;;;0.30;;
47922;SDS011;33688;44.354;9.228;2022-09-17T11:55:55;1.27;;;0.40;;
47922;SDS011;33688;44.354;9.228;2022-09-17T11:58:30;0.50;;;0.50;;
47922;SDS011;33688;44.354;9.228;2022-09-17T12:01:08;0.60;;;0.50;;
47922;SDS011;33688;44.354;9.228;2022-09-17T12:07:26;0.40;;;0.40;;
47922;SDS011;33688;44.354;9.228;2022-09-17T12:09:55;0.47;;;0.47;;
47922;SDS011;33688;44.354;9.228;2022-09-17T12:12:54;0.40;;;0.40;;
47922;SDS011;33688;44.354;9.228;2022-09-17T12:15:38;2.40;;;0.57;;
47922;SDS011;33688;44.354;9.228;2022-09-17T12:20:44;0.68;;;0.50;;
47922;SDS011;33688;44.354;9.228;2022-09-17T12:23:14;0.82;;;0.47;;
47922;SDS011;33688;44.354;9.228;2022-09-17T12:29:06;0.38;;;0.38;;
47922;SDS011;33688;44.354;9.228;2022-09-17T12:40:50;0.50;;;0.50;;
47922;SDS011;33688;44.354;9.228;2022-09-17T12:49:00;0.38;;;0.38;;
47922;SDS011;33688;44.354;9.228;2022-09-17T12:57:55;0.30;;;0.30;;
47922;SDS011;33688;44.354;9.228;2022-09-17T13:01:28;0.85;;;0.57;;
47922;SDS011;33688;44.354;9.228;2022-09-17T13:18:46;0.43;;;0.43;;
47922;SDS011;33688;44.354;9.228;2022-09-17T13:24:37;0.60;;;0.40;;
47922;SDS011;33688;44.354;9.228;2022-09-17T13:27:04;0.40;;;0.40;;
47922;SDS011;33688;44.354;9.228;2022-09-17T13:32:55;0.50;;;0.50;;
47922;SDS011;33688;44.354;9.228;2022-09-17T13:40:06;0.73;;;0.60;;
47922;SDS011;33688;44.354;9.228;2022-09-17T13:48:25;0.40;;;0.40;;
47922;SDS011;33688;44.354;9.228;2022-09-17T13:53:42;0.40;;;0.40;;
47922;SDS011;33688;44.354;9.228;2022-09-17T13:56:32;0.50;;;0.50;;
47922;SDS011;33688;44.354;9.228;2022-09-17T14:06:59;0.40;;;0.40;;
47922;SDS011;33688;44.354;9.228;2022-09-17T14:21:13;0.47;;;0.30;;
47922;SDS011;33688;44.354;9.228;2022-09-17T14:24:02;0.30;;;0.30;;
47922;SDS011;33688;44.354;9.228;2022-09-17T14:33:01;0.40;;;0.40;;
47922;SDS011;33688;44.354;9.228;2022-09-17T14:35:36;0.40;;;0.40;;
47922;SDS011;33688;44.354;9.228;2022-09-17T14:38:20;0.40;;;0.30;;
47922;SDS011;33688;44.354;9.228;2022-09-17T14:43:39;0.20;;;0.20;;
47922;SDS011;33688;44.354;9.228;2022-09-17T14:46:37;0.30;;;0.30;;
47922;SDS011;33688;44.354;9.228;2022-09-17T14:49:12;0.40;;;0.40;;
47922;SDS011;33688;44.354;9.228;2022-09-17T14:51:47;0.40;;;0.40;;
47922;SDS011;33688;44.354;9.228;2022-09-17T14:54:15;0.35;;;0.35;;
47922;SDS011;33688;44.354;9.228;2022-09-17T14:57:01;0.30;;;0.30;;
47922;SDS011;33688;44.354;9.228;2022-09-17T15:02:40;0.57;;;0.47;;
47922;SDS011;33688;44.354;9.228;2022-09-17T15:08:03;0.40;;;0.40;;
47922;SDS011;33688;44.354;9.228;2022-09-17T15:10:57;0.40;;;0.40;;
47922;SDS011;33688;44.354;9.228;2022-09-17T15:13:28;0.37;;;0.37;;
47922;SDS011;33688;44.354;9.228;2022-09-17T15:18:58;0.40;;;0.40;;
47922;SDS011;33688;44.354;9.228;2022-09-17T15:21:33;0.30;;;0.30;;
47922;SDS011;33688;44.354;9.228;2022-09-17T15:29:49;0.30;;;0.30;;
47922;SDS011;33688;44.354;9.228;2022-09-17T15:32:21;0.35;;;0.32;;
47922;SDS011;33688;44.354;9.228;2022-09-17T15:37:44;0.47;;;0.47;;
47922;SDS011;33688;44.354;9.228;2022-09-17T15:40:14;0.40;;;0.40;;
47922;SDS011;33688;44.354;9.228;2022-09-17T15:45:55;0.30;;;0.30;;
47922;SDS011;33688;44.354;9.228;2022-09-17T15:50:59;0.73;;;0.32;;
47922;SDS011;33688;44.354;9.228;2022-09-17T15:53:30;0.40;;;0.40;;
47922;SDS011;33688;44.354;9.228;2022-09-17T15:58:33;0.30;;;0.30;;
47922;SDS011;33688;44.354;9.228;2022-09-17T16:11:24;0.28;;;0.28;;
47922;SDS011;33688;44.354;9.228;2022-09-17T16:13:58;0.30;;;0.30;;
47922;SDS011;33688;44.354;9.228;2022-09-17T16:16:26;0.55;;;0.20;;
47922;SDS011;33688;44.354;9.228;2022-09-17T16:19:01;0.25;;;0.25;;
47922;SDS011;33688;44.354;9.228;2022-09-17T16:21:28;0.20;;;0.20;;
47922;SDS011;33688;44.354;9.228;2022-09-17T16:23:55;0.20;;;0.20;;
47922;SDS011;33688;44.354;9.228;2022-09-17T16:26:24;0.30;;;0.30;;
47922;SDS011;33688;44.354;9.228;2022-09-17T16:28:55;0.28;;;0.28;;
47922;SDS011;33688;44.354;9.228;2022-09-17T16:31:28;0.22;;;0.22;;
47922;SDS011;33688;44.354;9.228;2022-09-17T16:33:54;0.35;;;0.35;;
47922;SDS011;33688;44.354;9.228;2022-09-17T16:36:20;0.28;;;0.28;;
47922;SDS011;33688;44.354;9.228;2022-09-17T16:38:47;0.30;;;0.30;;
47922;SDS011;33688;44.354;9.228;2022-09-17T16:41:12;0.20;;;0.20;;
47922;SDS011;33688;44.354;9.228;2022-09-17T16:43:38;0.40;;;0.40;;
47922;SDS011;33688;44.354;9.228;2022-09-17T16:46:05;0.25;;;0.25;;
47922;SDS011;33688;44.354;9.228;2022-09-17T16:48:35;0.20;;;0.20;;
47922;SDS011;33688;44.354;9.228;2022-09-17T16:51:11;0.35;;;0.35;;
47922;SDS011;33688;44.354;9.228;2022-09-17T16:53:38;0.55;;;0.30;;
47922;SDS011;33688;44.354;9.228;2022-09-17T16:56:05;0.30;;;0.30;;
47922;SDS011;33688;44.354;9.228;2022-09-17T16:58:36;0.40;;;0.40;;
47922;SDS011;33688;44.354;9.228;2022-09-17T17:01:09;0.30;;;0.30;;
47922;SDS011;33688;44.354;9.228;2022-09-17T17:03:38;0.32;;;0.32;;
47922;SDS011;33688;44.354;9.228;2022-09-17T17:06:04;0.43;;;0.43;;
47922;SDS011;33688;44.354;9.228;2022-09-17T17:08:30;0.30;;;0.30;;
47922;SDS011;33688;44.354;9.228;2022-09-17T17:10:59;0.20;;;0.20;;
47922;SDS011;33688;44.354;9.228;2022-09-17T17:13:25;0.40;;;0.40;;
47922;SDS011;33688;44.354;9.228;2022-09-17T17:15:54;0.50;;;0.47;;
47922;SDS011;33688;44.354;9.228;2022-09-17T17:18:20;0.30;;;0.30;;
47922;SDS011;33688;44.354;9.228;2022-09-17T17:20:47;0.20;;;0.20;;
47922;SDS011;33688;44.354;9.228;2022-09-17T17:23:13;0.20;;;0.20;;
47922;SDS011;33688;44.354;9.228;2022-09-17T17:25:40;0.60;;;0.30;;
47922;SDS011;33688;44.354;9.228;2022-09-17T17:28:06;0.38;;;0.30;;
47922;SDS011;33688;44.354;9.228;2022-09-17T17:30:32;0.20;;;0.20;;
47922;SDS011;33688;44.354;9.228;2022-09-17T17:32:58;0.32;;;0.30;;
47922;SDS011;33688;44.354;9.228;2022-09-17T17:35:25;0.20;;;0.20;;
47922;SDS011;33688;44.354;9.228;2022-09-17T17:37:51;0.20;;;0.20;;
47922;SDS011;33688;44.354;9.228;2022-09-17T17:40:17;0.30;;;0.30;;
47922;SDS011;33688;44.354;9.228;2022-09-17T17:42:43;0.20;;;0.20;;
47922;SDS011;33688;44.354;9.228;2022-09-17T17:45:11;0.20;;;0.20;;
47922;SDS011;33688;44.354;9.228;2022-09-17T17:47:37;0.30;;;0.30;;
47922;SDS011;33688;44.354;9.228;2022-09-17T17:50:03;0.85;;;0.40;;
47922;SDS011;33688;44.354;9.228;2022-09-17T17:52:30;0.30;;;0.30;;
47922;SDS011;33688;44.354;9.228;2022-09-17T17:54:56;0.25;;;0.25;;
47922;SDS011;33688;44.354;9.228;2022-09-17T17:57:22;0.40;;;0.40;;
47922;SDS011;33688;44.354;9.228;2022-09-17T17:59:47;0.20;;;0.20;;
47922;SDS011;33688;44.354;9.228;2022-09-17T18:02:13;0.50;;;0.30;;
47922;SDS011;33688;44.354;9.228;2022-09-17T18:04:39;0.40;;;0.30;;
47922;SDS011;33688;44.354;9.228;2022-09-17T18:07:04;0.22;;;0.22;;
47922;SDS011;33688;44.354;9.228;2022-09-17T18:09:31;0.35;;;0.30;;
47922;SDS011;33688;44.354;9.228;2022-09-17T18:11:57;0.32;;;0.32;;
47922;SDS011;33688;44.354;9.228;2022-09-17T18:14:23;0.30;;;0.30;;
47922;SDS011;33688;44.354;9.228;2022-09-17T18:16:49;0.25;;;0.25;;
47922;SDS011;33688;44.354;9.228;2022-09-17T18:19:15;0.38;;;0.38;;
47922;SDS011;33688;44.354;9.228;2022-09-17T18:21:41;0.20;;;0.20;;
47922;SDS011;33688;44.354;9.228;2022-09-17T18:24:07;0.30;;;0.30;;
47922;SDS011;33688;44.354;9.228;2022-09-17T18:26:32;0.30;;;0.30;;
47922;SDS011;33688;44.354;9.228;2022-09-17T18:28:58;0.45;;;0.40;;
47922;SDS011;33688;44.354;9.228;2022-09-17T18:31:28;0.30;;;0.30;;
47922;SDS011;33688;44.354;9.228;2022-09-17T18:34:01;0.17;;;0.17;;
47922;SDS011;33688;44.354;9.228;2022-09-17T18:36:39;0.30;;;0.30;;
47922;SDS011;33688;44.354;9.228;2022-09-17T18:39:10;0.77;;;0.22;;
47922;SDS011;33688;44.354;9.228;2022-09-17T18:41:39;0.20;;;0.20;;
47922;SDS011;33688;44.354;9.228;2022-09-17T18:44:06;0.20;;;0.20;;
47922;SDS011;33688;44.354;9.228;2022-09-17T18:46:32;0.20;;;0.20;;
47922;SDS011;33688;44.354;9.228;2022-09-17T18:48:58;0.20;;;0.20;;
47922;SDS011;33688;44.354;9.228;2022-09-17T18:51:25;0.30;;;0.30;;
47922;SDS011;33688;44.354;9.228;2022-09-17T18:53:53;0.20;;;0.20;;
47922;SDS011;33688;44.354;9.228;2022-09-17T18:56:23;0.20;;;0.20;;
47922;SDS011;33688;44.354;9.228;2022-09-17T18:58:53;0.28;;;0.28;;
47922;SDS011;33688;44.354;9.228;2022-09-17T19:01:22;0.20;;;0.20;;
47922;SDS011;33688;44.354;9.228;2022-09-17T19:03:52;0.38;;;0.32;;
47922;SDS011;33688;44.354;9.228;2022-09-17T19:06:19;0.20;;;0.20;;
47922;SDS011;33688;44.354;9.228;2022-09-17T19:08:45;0.32;;;0.32;;
47922;SDS011;33688;44.354;9.228;2022-09-17T19:11:11;0.20;;;0.20;;
47922;SDS011;33688;44.354;9.228;2022-09-17T19:13:38;0.40;;;0.40;;
47922;SDS011;33688;44.354;9.228;2022-09-17T19:16:06;0.30;;;0.30;;
47922;SDS011;33688;44.354;9.228;2022-09-17T19:18:34;0.25;;;0.25;;
47922;SDS011;33688;44.354;9.228;2022-09-17T19:21:03;0.20;;;0.20;;
47922;SDS011;33688;44.354;9.228;2022-09-17T19:23:40;0.20;;;0.20;;
47922;SDS011;33688;44.354;9.228;2022-09-17T19:26:09;0.35;;;0.35;;
47922;SDS011;33688;44.354;9.228;2022-09-17T19:28:41;0.20;;;0.20;;
47922;SDS011;33688;44.354;9.228;2022-09-17T19:31:08;0.30;;;0.30;;
47922;SDS011;33688;44.354;9.228;2022-09-17T19:33:36;0.25;;;0.20;;
47922;SDS011;33688;44.354;9.228;2022-09-17T19:36:04;0.35;;;0.35;;